sensor_id;sensor_type;location;lat;lon;timestamp;P1;durP1;ratioP1;P2;durP2;ratioP2
65667;SDS011;52369;52.542;13.232;2023-12-14T00:02:10;12.88;;;6.07;;
65667;SDS011;52369;52.542;13.232;2023-12-14T00:04:36;12.10;;;5.88;;
65667;SDS011;52369;52.542;13.232;2023-12-14T00:07:02;15.38;;;6.50;;
65667;SDS011;52369;52.542;13.232;2023-12-14T00:09:28;13.50;;;6.60;;
65667;SDS011;52369;52.542;13.232;2023-12-14T00:11:54;14.38;;;5.93;;
65667;SDS011;52369;52.542;13.232;2023-12-14T00:14:20;13.10;;;6.80;;
65667;SDS011;52369;52.542;13.232;2023-12-14T00:16:46;13.50;;;6.22;;
65667;SDS011;52369;52.542;13.232;2023-12-14T00:19:14;12.90;;;6.07;;
65667;SDS011;52369;52.542;13.232;2023-12-14T00:21:40;14.95;;;6.85;;
65667;SDS011;52369;52.542;13.232;2023-12-14T00:24:06;14.55;;;6.72;;
65667;SDS011;52369;52.542;13.232;2023-12-14T00:26:32;12.60;;;6.30;;
65667;SDS011;52369;52.542;13.232;2023-12-14T00:28:58;17.77;;;6.57;;
65667;SDS011;52369;52.542;13.232;2023-12-14T00:31:24;15.13;;;7.07;;
65667;SDS011;52369;52.542;13.232;2023-12-14T00:33:50;14.55;;;6.82;;
65667;SDS011;52369;52.542;13.232;2023-12-14T00:36:19;13.70;;;6.15;;
65667;SDS011;52369;52.542;13.232;2023-12-14T00:38:46;13.02;;;6.40;;
65667;SDS011;52369;52.542;13.232;2023-12-14T00:41:12;15.30;;;6.32;;
65667;SDS011;52369;52.542;13.232;2023-12-14T00:43:38;14.88;;;6.88;;
65667;SDS011;52369;52.542;13.232;2023-12-14T00:46:04;13.85;;;6.40;;
65667;SDS011;52369;52.542;13.232;2023-12-14T00:48:30;12.43;;;6.25;;
65667;SDS011;52369;52.542;13.232;2023-12-14T00:50:56;10.40;;;5.93;;
65667;SDS011;52369;52.542;13.232;2023-12-14T00:53:22;14.23;;;6.55;;
65667;SDS011;52369;52.542;13.232;2023-12-14T00:55:48;14.00;;;6.60;;
65667;SDS011;52369;52.542;13.232;2023-12-14T00:58:14;13.45;;;6.57;;
65667;SDS011;52369;52.542;13.232;2023-12-14T01:00:40;13.23;;;5.75;;
65667;SDS011;52369;52.542;13.232;2023-12-14T01:03:06;14.43;;;6.90;;
65667;SDS011;52369;52.542;13.232;2023-12-14T01:05:32;15.23;;;7.18;;
65667;SDS011;52369;52.542;13.232;2023-12-14T01:07:58;14.60;;;6.57;;
65667;SDS011;52369;52.542;13.232;2023-12-14T01:10:25;12.48;;;5.65;;
65667;SDS011;52369;52.542;13.232;2023-12-14T01:12:51;12.15;;;6.03;;
65667;SDS011;52369;52.542;13.232;2023-12-14T01:15:17;13.75;;;6.50;;
65667;SDS011;52369;52.542;13.232;2023-12-14T01:17:43;14.07;;;6.22;;
65667;SDS011;52369;52.542;13.232;2023-12-14T01:20:09;12.82;;;6.53;;
65667;SDS011;52369;52.542;13.232;2023-12-14T01:22:35;13.13;;;5.65;;
65667;SDS011;52369;52.542;13.232;2023-12-14T01:25:01;13.20;;;6.25;;
65667;SDS011;52369;52.542;13.232;2023-12-14T01:27:27;14.75;;;7.15;;
65667;SDS011;52369;52.542;13.232;2023-12-14T01:29:53;13.82;;;5.95;;
65667;SDS011;52369;52.542;13.232;2023-12-14T01:32:19;12.02;;;5.93;;
65667;SDS011;52369;52.542;13.232;2023-12-14T01:34:45;13.13;;;6.25;;
65667;SDS011;52369;52.542;13.232;2023-12-14T01:37:11;12.10;;;5.40;;
65667;SDS011;52369;52.542;13.232;2023-12-14T01:39:37;12.18;;;5.68;;
65667;SDS011;52369;52.542;13.232;2023-12-14T01:42:03;11.02;;;5.63;;
65667;SDS011;52369;52.542;13.232;2023-12-14T01:44:29;12.13;;;5.68;;
65667;SDS011;52369;52.542;13.232;2023-12-14T01:46:55;10.52;;;5.28;;
65667;SDS011;52369;52.542;13.232;2023-12-14T01:49:21;10.93;;;4.85;;
65667;SDS011;52369;52.542;13.232;2023-12-14T01:51:47;11.63;;;5.32;;
65667;SDS011;52369;52.542;13.232;2023-12-14T01:54:13;9.90;;;5.15;;
65667;SDS011;52369;52.542;13.232;2023-12-14T01:56:39;10.35;;;5.22;;
65667;SDS011;52369;52.542;13.232;2023-12-14T01:59:05;9.85;;;5.30;;
65667;SDS011;52369;52.542;13.232;2023-12-14T02:04:07;11.13;;;5.45;;
65667;SDS011;52369;52.542;13.232;2023-12-14T02:06:33;10.55;;;5.63;;
65667;SDS011;52369;52.542;13.232;2023-12-14T02:08:59;12.98;;;5.80;;
65667;SDS011;52369;52.542;13.232;2023-12-14T02:11:25;11.77;;;6.03;;
65667;SDS011;52369;52.542;13.232;2023-12-14T02:13:51;13.13;;;5.93;;
65667;SDS011;52369;52.542;13.232;2023-12-14T02:16:17;12.88;;;6.32;;
65667;SDS011;52369;52.542;13.232;2023-12-14T02:18:43;13.52;;;5.95;;
65667;SDS011;52369;52.542;13.232;2023-12-14T02:21:09;12.38;;;5.90;;
65667;SDS011;52369;52.542;13.232;2023-12-14T02:23:41;14.85;;;7.00;;
65667;SDS011;52369;52.542;13.232;2023-12-14T02:26:07;15.63;;;6.45;;
65667;SDS011;52369;52.542;13.232;2023-12-14T02:28:33;12.15;;;5.90;;
65667;SDS011;52369;52.542;13.232;2023-12-14T02:30:59;11.10;;;6.07;;
65667;SDS011;52369;52.542;13.232;2023-12-14T02:33:25;12.45;;;6.13;;
65667;SDS011;52369;52.542;13.232;2023-12-14T02:35:51;14.13;;;6.32;;
65667;SDS011;52369;52.542;13.232;2023-12-14T02:38:17;14.85;;;6.28;;
65667;SDS011;52369;52.542;13.232;2023-12-14T02:40:43;15.48;;;7.13;;
65667;SDS011;52369;52.542;13.232;2023-12-14T02:43:09;12.07;;;6.47;;
65667;SDS011;52369;52.542;13.232;2023-12-14T02:45:35;13.30;;;6.28;;
65667;SDS011;52369;52.542;13.232;2023-12-14T02:48:01;13.23;;;6.32;;
65667;SDS011;52369;52.542;13.232;2023-12-14T02:50:27;12.82;;;6.53;;
65667;SDS011;52369;52.542;13.232;2023-12-14T02:52:53;14.32;;;6.78;;
65667;SDS011;52369;52.542;13.232;2023-12-14T02:55:19;13.57;;;6.53;;
65667;SDS011;52369;52.542;13.232;2023-12-14T02:57:45;13.15;;;7.05;;
65667;SDS011;52369;52.542;13.232;2023-12-14T03:00:12;12.80;;;6.47;;
65667;SDS011;52369;52.542;13.232;2023-12-14T03:02:38;12.82;;;6.50;;
65667;SDS011;52369;52.542;13.232;2023-12-14T03:05:04;13.38;;;6.97;;
65667;SDS011;52369;52.542;13.232;2023-12-14T03:07:30;15.15;;;7.20;;
65667;SDS011;52369;52.542;13.232;2023-12-14T03:09:56;15.95;;;6.93;;
65667;SDS011;52369;52.542;13.232;2023-12-14T03:12:22;14.60;;;6.30;;
65667;SDS011;52369;52.542;13.232;2023-12-14T03:14:48;13.88;;;6.68;;
65667;SDS011;52369;52.542;13.232;2023-12-14T03:17:14;15.90;;;7.20;;
65667;SDS011;52369;52.542;13.232;2023-12-14T03:19:41;13.93;;;6.82;;
65667;SDS011;52369;52.542;13.232;2023-12-14T03:22:07;14.75;;;6.40;;
65667;SDS011;52369;52.542;13.232;2023-12-14T03:24:37;13.60;;;6.93;;
65667;SDS011;52369;52.542;13.232;2023-12-14T03:27:03;13.10;;;6.80;;
65667;SDS011;52369;52.542;13.232;2023-12-14T03:29:30;12.10;;;6.45;;
65667;SDS011;52369;52.542;13.232;2023-12-14T03:31:56;12.73;;;6.68;;
65667;SDS011;52369;52.542;13.232;2023-12-14T03:34:22;14.77;;;6.20;;
65667;SDS011;52369;52.542;13.232;2023-12-14T03:36:48;13.80;;;6.65;;
65667;SDS011;52369;52.542;13.232;2023-12-14T03:39:14;13.98;;;6.40;;
65667;SDS011;52369;52.542;13.232;2023-12-14T03:41:41;14.20;;;6.68;;
65667;SDS011;52369;52.542;13.232;2023-12-14T03:44:07;11.32;;;6.03;;
65667;SDS011;52369;52.542;13.232;2023-12-14T03:46:33;12.77;;;7.07;;
65667;SDS011;52369;52.542;13.232;2023-12-14T03:48:59;15.23;;;6.72;;
65667;SDS011;52369;52.542;13.232;2023-12-14T03:51:25;12.95;;;6.80;;
65667;SDS011;52369;52.542;13.232;2023-12-14T03:53:51;13.13;;;6.50;;
65667;SDS011;52369;52.542;13.232;2023-12-14T03:56:18;12.40;;;6.15;;
65667;SDS011;52369;52.542;13.232;2023-12-14T03:58:43;12.45;;;6.28;;
65667;SDS011;52369;52.542;13.232;2023-12-14T04:01:16;11.70;;;5.97;;
65667;SDS011;52369;52.542;13.232;2023-12-14T04:03:42;12.07;;;5.70;;
65667;SDS011;52369;52.542;13.232;2023-12-14T04:06:08;11.98;;;5.88;;
65667;SDS011;52369;52.542;13.232;2023-12-14T04:08:34;9.25;;;5.35;;
65667;SDS011;52369;52.542;13.232;2023-12-14T04:11:00;11.38;;;5.93;;
65667;SDS011;52369;52.542;13.232;2023-12-14T04:13:26;10.75;;;5.15;;
65667;SDS011;52369;52.542;13.232;2023-12-14T04:15:52;11.88;;;6.10;;
65667;SDS011;52369;52.542;13.232;2023-12-14T04:18:18;13.18;;;6.30;;
65667;SDS011;52369;52.542;13.232;2023-12-14T04:20:44;12.80;;;5.72;;
65667;SDS011;52369;52.542;13.232;2023-12-14T04:23:10;12.18;;;5.40;;
65667;SDS011;52369;52.542;13.232;2023-12-14T04:25:36;11.93;;;6.30;;
65667;SDS011;52369;52.542;13.232;2023-12-14T04:28:02;10.90;;;5.40;;
65667;SDS011;52369;52.542;13.232;2023-12-14T04:30:28;12.98;;;6.00;;
65667;SDS011;52369;52.542;13.232;2023-12-14T04:32:55;12.23;;;5.88;;
65667;SDS011;52369;52.542;13.232;2023-12-14T04:35:21;11.48;;;5.90;;
65667;SDS011;52369;52.542;13.232;2023-12-14T04:37:50;13.23;;;5.82;;
65667;SDS011;52369;52.542;13.232;2023-12-14T04:40:16;12.00;;;5.88;;
65667;SDS011;52369;52.542;13.232;2023-12-14T04:42:42;13.82;;;6.43;;
65667;SDS011;52369;52.542;13.232;2023-12-14T04:45:08;12.07;;;6.20;;
65667;SDS011;52369;52.542;13.232;2023-12-14T04:47:34;12.73;;;5.65;;
65667;SDS011;52369;52.542;13.232;2023-12-14T04:50:01;12.02;;;6.32;;
65667;SDS011;52369;52.542;13.232;2023-12-14T04:52:27;11.02;;;6.13;;
65667;SDS011;52369;52.542;13.232;2023-12-14T04:54:53;15.15;;;6.03;;
65667;SDS011;52369;52.542;13.232;2023-12-14T04:57:19;12.02;;;5.70;;
65667;SDS011;52369;52.542;13.232;2023-12-14T04:59:45;13.70;;;6.50;;
65667;SDS011;52369;52.542;13.232;2023-12-14T05:02:11;13.85;;;6.75;;
65667;SDS011;52369;52.542;13.232;2023-12-14T05:04:37;13.48;;;6.28;;
65667;SDS011;52369;52.542;13.232;2023-12-14T05:07:03;13.68;;;6.43;;
65667;SDS011;52369;52.542;13.232;2023-12-14T05:09:29;15.35;;;6.82;;
65667;SDS011;52369;52.542;13.232;2023-12-14T05:11:55;13.63;;;6.35;;
65667;SDS011;52369;52.542;13.232;2023-12-14T05:14:21;14.10;;;6.28;;
65667;SDS011;52369;52.542;13.232;2023-12-14T05:16:48;11.15;;;6.03;;
65667;SDS011;52369;52.542;13.232;2023-12-14T05:19:16;11.68;;;5.97;;
65667;SDS011;52369;52.542;13.232;2023-12-14T05:21:43;10.65;;;5.70;;
65667;SDS011;52369;52.542;13.232;2023-12-14T05:24:09;12.73;;;6.63;;
65667;SDS011;52369;52.542;13.232;2023-12-14T05:26:35;13.00;;;6.10;;
65667;SDS011;52369;52.542;13.232;2023-12-14T05:29:01;13.35;;;6.70;;
65667;SDS011;52369;52.542;13.232;2023-12-14T05:31:27;12.57;;;6.15;;
65667;SDS011;52369;52.542;13.232;2023-12-14T05:33:53;13.75;;;5.90;;
65667;SDS011;52369;52.542;13.232;2023-12-14T05:36:19;15.38;;;6.25;;
65667;SDS011;52369;52.542;13.232;2023-12-14T05:38:46;13.70;;;5.88;;
65667;SDS011;52369;52.542;13.232;2023-12-14T05:41:12;12.40;;;5.93;;
65667;SDS011;52369;52.542;13.232;2023-12-14T05:43:38;11.98;;;5.53;;
65667;SDS011;52369;52.542;13.232;2023-12-14T05:46:04;10.88;;;5.90;;
65667;SDS011;52369;52.542;13.232;2023-12-14T05:48:30;11.00;;;5.50;;
65667;SDS011;52369;52.542;13.232;2023-12-14T05:50:56;12.63;;;5.93;;
65667;SDS011;52369;52.542;13.232;2023-12-14T05:53:22;11.63;;;5.30;;
65667;SDS011;52369;52.542;13.232;2023-12-14T05:55:48;10.23;;;5.15;;
65667;SDS011;52369;52.542;13.232;2023-12-14T05:58:14;11.27;;;5.97;;
65667;SDS011;52369;52.542;13.232;2023-12-14T06:00:40;10.15;;;5.35;;
65667;SDS011;52369;52.542;13.232;2023-12-14T06:03:06;10.35;;;4.93;;
65667;SDS011;52369;52.542;13.232;2023-12-14T06:05:32;12.05;;;5.85;;
65667;SDS011;52369;52.542;13.232;2023-12-14T06:07:58;12.25;;;5.43;;
65667;SDS011;52369;52.542;13.232;2023-12-14T06:10:24;10.60;;;5.30;;
65667;SDS011;52369;52.542;13.232;2023-12-14T06:12:50;11.18;;;5.80;;
65667;SDS011;52369;52.542;13.232;2023-12-14T06:15:16;10.10;;;5.55;;
65667;SDS011;52369;52.542;13.232;2023-12-14T06:17:42;10.48;;;5.47;;
65667;SDS011;52369;52.542;13.232;2023-12-14T06:20:09;11.13;;;5.22;;
65667;SDS011;52369;52.542;13.232;2023-12-14T06:22:38;11.70;;;5.00;;
65667;SDS011;52369;52.542;13.232;2023-12-14T06:25:05;11.27;;;5.40;;
65667;SDS011;52369;52.542;13.232;2023-12-14T06:27:31;11.00;;;4.93;;
65667;SDS011;52369;52.542;13.232;2023-12-14T06:29:58;10.75;;;5.55;;
65667;SDS011;52369;52.542;13.232;2023-12-14T06:32:24;10.25;;;5.22;;
65667;SDS011;52369;52.542;13.232;2023-12-14T06:34:50;10.20;;;5.13;;
65667;SDS011;52369;52.542;13.232;2023-12-14T06:37:16;11.13;;;5.43;;
65667;SDS011;52369;52.542;13.232;2023-12-14T06:39:42;10.68;;;5.50;;
65667;SDS011;52369;52.542;13.232;2023-12-14T06:42:08;8.13;;;4.88;;
65667;SDS011;52369;52.542;13.232;2023-12-14T06:44:34;12.05;;;5.90;;
65667;SDS011;52369;52.542;13.232;2023-12-14T06:47:00;11.00;;;5.35;;
65667;SDS011;52369;52.542;13.232;2023-12-14T06:49:26;10.68;;;5.40;;
65667;SDS011;52369;52.542;13.232;2023-12-14T06:51:52;10.65;;;5.38;;
65667;SDS011;52369;52.542;13.232;2023-12-14T06:54:18;11.32;;;6.00;;
65667;SDS011;52369;52.542;13.232;2023-12-14T06:56:44;10.25;;;5.30;;
65667;SDS011;52369;52.542;13.232;2023-12-14T06:59:10;9.77;;;5.32;;
65667;SDS011;52369;52.542;13.232;2023-12-14T07:01:36;9.88;;;5.40;;
65667;SDS011;52369;52.542;13.232;2023-12-14T07:04:03;12.02;;;5.22;;
65667;SDS011;52369;52.542;13.232;2023-12-14T07:06:29;12.90;;;5.90;;
65667;SDS011;52369;52.542;13.232;2023-12-14T07:08:55;9.32;;;5.32;;
65667;SDS011;52369;52.542;13.232;2023-12-14T07:11:21;10.10;;;5.60;;
65667;SDS011;52369;52.542;13.232;2023-12-14T07:13:47;9.38;;;5.43;;
65667;SDS011;52369;52.542;13.232;2023-12-14T07:16:13;9.98;;;5.18;;
65667;SDS011;52369;52.542;13.232;2023-12-14T07:18:42;10.85;;;5.45;;
65667;SDS011;52369;52.542;13.232;2023-12-14T07:21:09;12.07;;;5.68;;
65667;SDS011;52369;52.542;13.232;2023-12-14T07:23:36;10.75;;;5.30;;
65667;SDS011;52369;52.542;13.232;2023-12-14T07:26:02;9.68;;;5.40;;
65667;SDS011;52369;52.542;13.232;2023-12-14T07:28:28;12.45;;;6.07;;
65667;SDS011;52369;52.542;13.232;2023-12-14T07:30:54;12.60;;;6.22;;
65667;SDS011;52369;52.542;13.232;2023-12-14T07:33:20;10.57;;;6.18;;
65667;SDS011;52369;52.542;13.232;2023-12-14T07:35:46;15.98;;;6.75;;
65667;SDS011;52369;52.542;13.232;2023-12-14T07:38:12;12.90;;;6.82;;
65667;SDS011;52369;52.542;13.232;2023-12-14T07:40:38;13.10;;;6.90;;
65667;SDS011;52369;52.542;13.232;2023-12-14T07:43:05;13.45;;;6.45;;
65667;SDS011;52369;52.542;13.232;2023-12-14T07:45:31;12.75;;;6.60;;
65667;SDS011;52369;52.542;13.232;2023-12-14T07:47:58;12.75;;;7.35;;
65667;SDS011;52369;52.542;13.232;2023-12-14T07:50:24;15.90;;;6.70;;
65667;SDS011;52369;52.542;13.232;2023-12-14T07:52:50;13.25;;;6.47;;
65667;SDS011;52369;52.542;13.232;2023-12-14T07:55:16;12.77;;;6.38;;
65667;SDS011;52369;52.542;13.232;2023-12-14T07:57:42;13.65;;;6.78;;
65667;SDS011;52369;52.542;13.232;2023-12-14T08:00:09;14.88;;;6.88;;
65667;SDS011;52369;52.542;13.232;2023-12-14T08:02:35;14.68;;;7.18;;
65667;SDS011;52369;52.542;13.232;2023-12-14T08:05:01;15.68;;;7.50;;
65667;SDS011;52369;52.542;13.232;2023-12-14T08:07:27;15.30;;;8.65;;
65667;SDS011;52369;52.542;13.232;2023-12-14T08:09:55;16.35;;;7.70;;
65667;SDS011;52369;52.542;13.232;2023-12-14T08:12:21;14.38;;;7.30;;
65667;SDS011;52369;52.542;13.232;2023-12-14T08:14:47;14.00;;;7.15;;
65667;SDS011;52369;52.542;13.232;2023-12-14T08:17:13;13.45;;;7.05;;
65667;SDS011;52369;52.542;13.232;2023-12-14T08:19:39;14.02;;;7.45;;
65667;SDS011;52369;52.542;13.232;2023-12-14T08:22:05;12.25;;;6.68;;
65667;SDS011;52369;52.542;13.232;2023-12-14T08:24:32;15.57;;;7.53;;
65667;SDS011;52369;52.542;13.232;2023-12-14T08:26:58;17.10;;;7.35;;
65667;SDS011;52369;52.542;13.232;2023-12-14T08:29:24;14.32;;;7.90;;
65667;SDS011;52369;52.542;13.232;2023-12-14T08:31:50;15.80;;;7.63;;
65667;SDS011;52369;52.542;13.232;2023-12-14T08:34:16;13.38;;;6.95;;
65667;SDS011;52369;52.542;13.232;2023-12-14T08:36:42;14.00;;;7.07;;
65667;SDS011;52369;52.542;13.232;2023-12-14T08:39:09;14.68;;;7.25;;
65667;SDS011;52369;52.542;13.232;2023-12-14T08:41:35;15.95;;;7.82;;
65667;SDS011;52369;52.542;13.232;2023-12-14T08:44:01;15.52;;;7.75;;
65667;SDS011;52369;52.542;13.232;2023-12-14T08:46:27;16.75;;;8.20;;
65667;SDS011;52369;52.542;13.232;2023-12-14T08:48:53;15.90;;;8.27;;
65667;SDS011;52369;52.542;13.232;2023-12-14T08:51:19;15.77;;;8.27;;
65667;SDS011;52369;52.542;13.232;2023-12-14T08:53:46;15.15;;;7.57;;
65667;SDS011;52369;52.542;13.232;2023-12-14T08:56:12;15.25;;;7.50;;
65667;SDS011;52369;52.542;13.232;2023-12-14T08:58:38;14.60;;;7.68;;
65667;SDS011;52369;52.542;13.232;2023-12-14T09:01:04;14.05;;;8.20;;
65667;SDS011;52369;52.542;13.232;2023-12-14T09:03:30;16.20;;;7.57;;
65667;SDS011;52369;52.542;13.232;2023-12-14T09:05:56;18.95;;;9.20;;
65667;SDS011;52369;52.542;13.232;2023-12-14T09:08:23;15.57;;;8.07;;
65667;SDS011;52369;52.542;13.232;2023-12-14T09:10:49;15.13;;;8.02;;
65667;SDS011;52369;52.542;13.232;2023-12-14T09:13:15;16.60;;;8.40;;
65667;SDS011;52369;52.542;13.232;2023-12-14T09:15:41;15.15;;;8.05;;
65667;SDS011;52369;52.542;13.232;2023-12-14T09:18:07;16.80;;;7.88;;
65667;SDS011;52369;52.542;13.232;2023-12-14T09:20:33;16.02;;;7.15;;
65667;SDS011;52369;52.542;13.232;2023-12-14T09:23:02;15.35;;;8.15;;
65667;SDS011;52369;52.542;13.232;2023-12-14T09:25:28;17.88;;;9.45;;
65667;SDS011;52369;52.542;13.232;2023-12-14T09:27:54;17.20;;;8.55;;
65667;SDS011;52369;52.542;13.232;2023-12-14T09:30:20;20.13;;;9.05;;
65667;SDS011;52369;52.542;13.232;2023-12-14T09:32:46;15.90;;;8.13;;
65667;SDS011;52369;52.542;13.232;2023-12-14T09:35:12;16.55;;;8.27;;
65667;SDS011;52369;52.542;13.232;2023-12-14T09:37:38;17.17;;;8.43;;
65667;SDS011;52369;52.542;13.232;2023-12-14T09:40:06;18.08;;;8.75;;
65667;SDS011;52369;52.542;13.232;2023-12-14T09:42:36;17.98;;;8.75;;
65667;SDS011;52369;52.542;13.232;2023-12-14T09:45:03;16.10;;;8.27;;
65667;SDS011;52369;52.542;13.232;2023-12-14T09:47:29;14.07;;;8.05;;
65667;SDS011;52369;52.542;13.232;2023-12-14T09:49:56;18.83;;;9.00;;
65667;SDS011;52369;52.542;13.232;2023-12-14T09:52:22;18.33;;;8.93;;
65667;SDS011;52369;52.542;13.232;2023-12-14T09:54:48;16.90;;;8.23;;
65667;SDS011;52369;52.542;13.232;2023-12-14T09:57:14;15.73;;;7.88;;
65667;SDS011;52369;52.542;13.232;2023-12-14T09:59:40;16.67;;;8.05;;
65667;SDS011;52369;52.542;13.232;2023-12-14T10:02:10;15.88;;;8.13;;
65667;SDS011;52369;52.542;13.232;2023-12-14T10:04:36;15.43;;;7.88;;
65667;SDS011;52369;52.542;13.232;2023-12-14T10:07:02;16.73;;;8.45;;
65667;SDS011;52369;52.542;13.232;2023-12-14T10:09:32;16.63;;;8.43;;
65667;SDS011;52369;52.542;13.232;2023-12-14T10:12:02;17.73;;;8.70;;
65667;SDS011;52369;52.542;13.232;2023-12-14T10:14:29;18.45;;;8.55;;
65667;SDS011;52369;52.542;13.232;2023-12-14T10:16:55;17.80;;;8.75;;
65667;SDS011;52369;52.542;13.232;2023-12-14T10:19:21;17.77;;;8.88;;
65667;SDS011;52369;52.542;13.232;2023-12-14T10:21:48;16.60;;;7.95;;
65667;SDS011;52369;52.542;13.232;2023-12-14T10:24:14;16.33;;;7.97;;
65667;SDS011;52369;52.542;13.232;2023-12-14T10:26:40;18.02;;;8.73;;
65667;SDS011;52369;52.542;13.232;2023-12-14T10:29:07;16.75;;;8.27;;
65667;SDS011;52369;52.542;13.232;2023-12-14T10:31:34;17.80;;;8.00;;
65667;SDS011;52369;52.542;13.232;2023-12-14T10:34:04;17.33;;;8.57;;
65667;SDS011;52369;52.542;13.232;2023-12-14T10:36:31;19.08;;;8.63;;
65667;SDS011;52369;52.542;13.232;2023-12-14T10:38:58;16.00;;;8.10;;
65667;SDS011;52369;52.542;13.232;2023-12-14T10:41:24;16.02;;;8.18;;
65667;SDS011;52369;52.542;13.232;2023-12-14T10:43:52;15.13;;;7.68;;
65667;SDS011;52369;52.542;13.232;2023-12-14T10:46:19;19.02;;;8.52;;
65667;SDS011;52369;52.542;13.232;2023-12-14T10:48:46;18.33;;;8.75;;
65667;SDS011;52369;52.542;13.232;2023-12-14T10:51:13;16.50;;;7.70;;
65667;SDS011;52369;52.542;13.232;2023-12-14T10:53:39;15.90;;;8.25;;
65667;SDS011;52369;52.542;13.232;2023-12-14T10:56:08;16.92;;;8.23;;
65667;SDS011;52369;52.542;13.232;2023-12-14T11:01:14;15.98;;;8.02;;
65667;SDS011;52369;52.542;13.232;2023-12-14T11:03:42;17.20;;;9.00;;
65667;SDS011;52369;52.542;13.232;2023-12-14T11:08:52;18.58;;;9.38;;
65667;SDS011;52369;52.542;13.232;2023-12-14T11:11:20;19.20;;;8.90;;
65667;SDS011;52369;52.542;13.232;2023-12-14T11:13:47;16.95;;;8.77;;
65667;SDS011;52369;52.542;13.232;2023-12-14T11:16:17;16.90;;;8.25;;
65667;SDS011;52369;52.542;13.232;2023-12-14T11:18:45;19.13;;;9.05;;
65667;SDS011;52369;52.542;13.232;2023-12-14T11:21:11;16.33;;;8.77;;
65667;SDS011;52369;52.542;13.232;2023-12-14T11:23:44;16.05;;;8.05;;
65667;SDS011;52369;52.542;13.232;2023-12-14T11:26:10;16.42;;;7.72;;
65667;SDS011;52369;52.542;13.232;2023-12-14T11:28:37;16.95;;;8.65;;
65667;SDS011;52369;52.542;13.232;2023-12-14T11:31:03;16.27;;;7.70;;
65667;SDS011;52369;52.542;13.232;2023-12-14T11:33:33;17.65;;;8.52;;
65667;SDS011;52369;52.542;13.232;2023-12-14T11:36:00;14.05;;;7.05;;
65667;SDS011;52369;52.542;13.232;2023-12-14T11:38:28;14.57;;;7.30;;
65667;SDS011;52369;52.542;13.232;2023-12-14T11:40:54;14.27;;;8.00;;
65667;SDS011;52369;52.542;13.232;2023-12-14T11:43:20;13.15;;;6.70;;
65667;SDS011;52369;52.542;13.232;2023-12-14T11:45:48;15.98;;;7.57;;
65667;SDS011;52369;52.542;13.232;2023-12-14T11:48:14;14.95;;;7.45;;
65667;SDS011;52369;52.542;13.232;2023-12-14T11:50:41;17.17;;;7.90;;
65667;SDS011;52369;52.542;13.232;2023-12-14T11:53:08;15.93;;;8.40;;
65667;SDS011;52369;52.542;13.232;2023-12-14T11:55:35;16.10;;;8.00;;
65667;SDS011;52369;52.542;13.232;2023-12-14T11:58:01;16.95;;;8.50;;
65667;SDS011;52369;52.542;13.232;2023-12-14T12:00:28;16.58;;;7.28;;
65667;SDS011;52369;52.542;13.232;2023-12-14T12:03:08;15.35;;;7.20;;
65667;SDS011;52369;52.542;13.232;2023-12-14T12:05:40;19.08;;;8.68;;
65667;SDS011;52369;52.542;13.232;2023-12-14T12:08:07;18.60;;;9.68;;
65667;SDS011;52369;52.542;13.232;2023-12-14T12:10:34;19.08;;;8.90;;
65667;SDS011;52369;52.542;13.232;2023-12-14T12:13:04;14.93;;;8.23;;
65667;SDS011;52369;52.542;13.232;2023-12-14T12:15:33;18.35;;;8.63;;
65667;SDS011;52369;52.542;13.232;2023-12-14T12:18:07;19.95;;;8.77;;
65667;SDS011;52369;52.542;13.232;2023-12-14T12:20:33;16.85;;;8.07;;
65667;SDS011;52369;52.542;13.232;2023-12-14T12:23:00;18.45;;;8.95;;
65667;SDS011;52369;52.542;13.232;2023-12-14T12:25:26;23.08;;;11.60;;
65667;SDS011;52369;52.542;13.232;2023-12-14T12:27:53;25.77;;;13.25;;
65667;SDS011;52369;52.542;13.232;2023-12-14T12:30:20;16.00;;;7.97;;
65667;SDS011;52369;52.542;13.232;2023-12-14T12:32:46;16.55;;;7.90;;
65667;SDS011;52369;52.542;13.232;2023-12-14T12:35:12;17.92;;;8.75;;
65667;SDS011;52369;52.542;13.232;2023-12-14T12:37:38;15.52;;;7.78;;
65667;SDS011;52369;52.542;13.232;2023-12-14T12:40:05;17.33;;;7.88;;
65667;SDS011;52369;52.542;13.232;2023-12-14T12:42:32;16.17;;;8.20;;
65667;SDS011;52369;52.542;13.232;2023-12-14T12:44:58;16.40;;;7.68;;
65667;SDS011;52369;52.542;13.232;2023-12-14T12:47:24;17.80;;;8.27;;
65667;SDS011;52369;52.542;13.232;2023-12-14T12:49:50;15.65;;;7.78;;
65667;SDS011;52369;52.542;13.232;2023-12-14T12:52:16;15.77;;;8.02;;
65667;SDS011;52369;52.542;13.232;2023-12-14T12:54:42;18.27;;;8.43;;
65667;SDS011;52369;52.542;13.232;2023-12-14T12:57:08;18.88;;;9.77;;
65667;SDS011;52369;52.542;13.232;2023-12-14T12:59:34;15.75;;;8.23;;
65667;SDS011;52369;52.542;13.232;2023-12-14T13:02:00;20.10;;;8.63;;
65667;SDS011;52369;52.542;13.232;2023-12-14T13:04:27;31.25;;;13.50;;
65667;SDS011;52369;52.542;13.232;2023-12-14T13:06:55;23.90;;;10.70;;
65667;SDS011;52369;52.542;13.232;2023-12-14T13:09:22;22.52;;;10.48;;
65667;SDS011;52369;52.542;13.232;2023-12-14T13:11:48;17.67;;;9.02;;
65667;SDS011;52369;52.542;13.232;2023-12-14T13:14:15;15.70;;;7.65;;
65667;SDS011;52369;52.542;13.232;2023-12-14T13:16:41;17.52;;;8.82;;
65667;SDS011;52369;52.542;13.232;2023-12-14T13:19:08;22.88;;;10.82;;
65667;SDS011;52369;52.542;13.232;2023-12-14T13:21:34;18.73;;;8.85;;
65667;SDS011;52369;52.542;13.232;2023-12-14T13:24:00;56.00;;;20.85;;
65667;SDS011;52369;52.542;13.232;2023-12-14T13:26:26;58.13;;;20.45;;
65667;SDS011;52369;52.542;13.232;2023-12-14T13:28:53;25.73;;;11.80;;
65667;SDS011;52369;52.542;13.232;2023-12-14T13:31:19;26.27;;;11.38;;
65667;SDS011;52369;52.542;13.232;2023-12-14T13:33:45;25.08;;;10.38;;
65667;SDS011;52369;52.542;13.232;2023-12-14T13:36:12;17.55;;;8.30;;
65667;SDS011;52369;52.542;13.232;2023-12-14T13:38:38;16.20;;;7.53;;
65667;SDS011;52369;52.542;13.232;2023-12-14T13:41:04;16.55;;;7.78;;
65667;SDS011;52369;52.542;13.232;2023-12-14T13:43:30;18.65;;;8.60;;
65667;SDS011;52369;52.542;13.232;2023-12-14T13:45:56;18.02;;;8.50;;
65667;SDS011;52369;52.542;13.232;2023-12-14T13:48:26;20.85;;;9.48;;
65667;SDS011;52369;52.542;13.232;2023-12-14T13:50:53;27.38;;;11.63;;
65667;SDS011;52369;52.542;13.232;2023-12-14T13:53:19;19.10;;;9.27;;
65667;SDS011;52369;52.542;13.232;2023-12-14T13:55:45;28.05;;;12.10;;
65667;SDS011;52369;52.542;13.232;2023-12-14T13:58:11;24.70;;;12.40;;
65667;SDS011;52369;52.542;13.232;2023-12-14T14:00:37;36.15;;;16.92;;
65667;SDS011;52369;52.542;13.232;2023-12-14T14:03:04;24.75;;;11.68;;
65667;SDS011;52369;52.542;13.232;2023-12-14T14:05:30;15.90;;;8.38;;
65667;SDS011;52369;52.542;13.232;2023-12-14T14:07:57;21.65;;;9.52;;
65667;SDS011;52369;52.542;13.232;2023-12-14T14:10:23;18.00;;;8.45;;
65667;SDS011;52369;52.542;13.232;2023-12-14T14:12:49;16.23;;;8.25;;
65667;SDS011;52369;52.542;13.232;2023-12-14T14:15:15;15.15;;;7.60;;
65667;SDS011;52369;52.542;13.232;2023-12-14T14:17:41;16.27;;;8.00;;
65667;SDS011;52369;52.542;13.232;2023-12-14T14:20:08;14.20;;;7.45;;
65667;SDS011;52369;52.542;13.232;2023-12-14T14:22:35;15.93;;;8.13;;
65667;SDS011;52369;52.542;13.232;2023-12-14T14:25:01;16.92;;;8.07;;